Terminal Aerodrome Forecast
Issued by NWS

Home | Current Version | Previous Version | Text Only | Print | Product List | Glossary On
Versions: 1 2 3 4 5 6 7 8 9 10 11 12 13
000
FTUS43 KDTX 251720
TAFDET
TAF
KDET 251720Z 2518/2618 19019G27KT P6SM BKN035
      TEMPO 2518/2519 -SHRA
     FM251900 21020G28KT P6SM BKN035
      TEMPO 2521/2524 6SM -SHRA
     FM260000 22012G18KT P6SM SCT060 BKN200
     FM260200 21011KT P6SM FEW040 SCT200
     FM260900 20008KT 4SM BR BKN018=

USA.gov is the U.S. government's official web portal to all federal, state and local government web resources and services.